Time;durP1;ratioP1;P1;durP2;ratioP2;P2;SDS_P1;SDS_P2;PMS_P1;PMS_P2;Temp;Humidity;BMP_temperature;BMP_pressure;BME280_temperature;BME280_humidity;BME280_pressure;Samples;Min_cycle;Max_cycle;Signal;HPM_P1;HPM_P2
2022/03/31 00:01:22;;;;;;;1.07;1.07;;;;;;;;;;6129430;23;20179;-82
2022/03/31 00:03:50;;;;;;;1.60;1.50;;;;;;;;;;6154744;23;20198;-82
2022/03/31 00:06:19;;;;;;;1.00;1.00;;;;;;;;;;6155459;23;20179;-82
2022/03/31 00:08:48;;;;;;;0.90;0.90;;;;;;;;;;6151781;23;20207;-82
2022/03/31 00:11:18;;;;;;;1.00;1.00;;;;;;;;;;6128955;23;20176;-82
2022/03/31 00:13:47;;;;;;;1.30;1.30;;;;;;;;;;6129205;23;20280;-82
2022/03/31 00:16:15;;;;;;;1.27;1.27;;;;;;;;;;6129420;23;20246;-82
2022/03/31 00:18:44;;;;;;;1.60;1.60;;;;;;;;;;6128983;23;20242;-82
2022/03/31 00:21:12;;;;;;;1.10;1.10;;;;;;;;;;6156467;23;20183;-82
2022/03/31 00:23:41;;;;;;;0.90;0.90;;;;;;;;;;6131315;23;20191;-82
2022/03/31 00:26:13;;;;;;;1.30;1.30;;;;;;;;;;6155411;23;20183;-81
2022/03/31 00:28:42;;;;;;;1.10;1.10;;;;;;;;;;6131169;23;20203;-82
2022/03/31 00:31:10;;;;;;;5.00;1.90;;;;;;;;;;6131113;23;20180;-82
2022/03/31 00:33:39;;;;;;;0.90;0.90;;;;;;;;;;6131113;23;20175;-82
2022/03/31 00:36:07;;;;;;;1.73;1.63;;;;;;;;;;6156479;23;20190;-82
2022/03/31 00:38:36;;;;;;;1.43;1.33;;;;;;;;;;6156887;23;20172;-82
2022/03/31 00:41:04;;;;;;;2.00;1.80;;;;;;;;;;6131169;23;20188;-82
2022/03/31 00:43:34;;;;;;;1.50;1.40;;;;;;;;;;6130980;23;20193;-82
2022/03/31 00:46:02;;;;;;;1.20;1.20;;;;;;;;;;6130714;23;20176;-82
2022/03/31 00:48:31;;;;;;;4.03;2.70;;;;;;;;;;6156857;23;20189;-82
2022/03/31 00:50:59;;;;;;;1.00;1.00;;;;;;;;;;6130979;23;20175;-82
2022/03/31 00:53:28;;;;;;;2.03;1.93;;;;;;;;;;6130540;23;20179;-82
2022/03/31 00:55:58;;;;;;;1.87;1.77;;;;;;;;;;6130337;23;20198;-82
2022/03/31 00:58:27;;;;;;;1.00;1.00;;;;;;;;;;6130417;23;20176;-82
2022/03/31 01:00:57;;;;;;;1.17;1.17;;;;;;;;;;6154808;23;20179;-82
2022/03/31 01:03:25;;;;;;;1.37;1.37;;;;;;;;;;6155212;23;20238;-81
2022/03/31 01:05:54;;;;;;;1.00;1.00;;;;;;;;;;6130458;23;20184;-82
2022/03/31 01:08:23;;;;;;;2.70;1.20;;;;;;;;;;6152978;23;20202;-82
2022/03/31 01:10:53;;;;;;;1.10;1.10;;;;;;;;;;6185917;23;20183;-82
2022/03/31 01:13:21;;;;;;;1.13;1.13;;;;;;;;;;6184986;23;20282;-82
2022/03/31 01:15:49;;;;;;;1.27;1.27;;;;;;;;;;6185245;23;20184;-81
2022/03/31 01:18:19;;;;;;;1.10;1.10;;;;;;;;;;6185370;23;20174;-82
2022/03/31 01:20:48;;;;;;;1.00;1.00;;;;;;;;;;6185977;23;20233;-80
2022/03/31 01:23:17;;;;;;;1.20;1.20;;;;;;;;;;6159886;23;20175;-81
2022/03/31 01:25:46;;;;;;;1.10;1.10;;;;;;;;;;6184768;23;20175;-81
2022/03/31 01:28:14;;;;;;;1.13;1.13;;;;;;;;;;6159709;23;20205;-82
2022/03/31 01:30:43;;;;;;;0.87;0.87;;;;;;;;;;6185871;23;20173;-81
2022/03/31 01:33:11;;;;;;;1.60;1.50;;;;;;;;;;6159698;23;20178;-82
2022/03/31 01:35:40;;;;;;;1.00;1.00;;;;;;;;;;6185849;23;20178;-82
2022/03/31 01:38:09;;;;;;;1.17;1.17;;;;;;;;;;6184535;23;20194;-82
2022/03/31 01:40:39;;;;;;;1.50;1.43;;;;;;;;;;6159965;23;20185;-82
2022/03/31 01:43:08;;;;;;;1.10;1.10;;;;;;;;;;6159980;23;20182;-82
2022/03/31 01:45:37;;;;;;;1.10;1.10;;;;;;;;;;6159573;23;20181;-82
2022/03/31 01:48:06;;;;;;;0.97;0.97;;;;;;;;;;6159596;23;20191;-82
2022/03/31 01:50:35;;;;;;;2.10;2.00;;;;;;;;;;6159293;23;20209;-82
2022/03/31 01:53:03;;;;;;;0.90;0.90;;;;;;;;;;6159885;23;20265;-82
2022/03/31 01:55:32;;;;;;;0.90;0.90;;;;;;;;;;6185970;23;20178;-82
2022/03/31 01:58:02;;;;;;;3.27;1.90;;;;;;;;;;6184356;23;20182;-82
2022/03/31 02:00:30;;;;;;;1.23;1.20;;;;;;;;;;6184158;23;20183;-82
2022/03/31 02:02:59;;;;;;;0.90;0.90;;;;;;;;;;6185443;23;20167;-79
2022/03/31 02:05:28;;;;;;;0.90;0.90;;;;;;;;;;6159609;23;20182;-79
2022/03/31 02:07:57;;;;;;;2.60;2.50;;;;;;;;;;6167693;23;20234;-82
2022/03/31 02:10:26;;;;;;;0.80;0.80;;;;;;;;;;6130203;23;20175;-82
2022/03/31 02:12:55;;;;;;;1.93;1.73;;;;;;;;;;6155658;23;20224;-82
2022/03/31 02:15:25;;;;;;;1.57;1.47;;;;;;;;;;6155919;23;20172;-82
2022/03/31 02:17:54;;;;;;;1.20;1.20;;;;;;;;;;6129765;23;20231;-82
2022/03/31 02:20:22;;;;;;;1.10;1.10;;;;;;;;;;6129571;23;20176;-82
2022/03/31 02:22:51;;;;;;;1.40;1.40;;;;;;;;;;6155650;23;20211;-83
2022/03/31 02:25:20;;;;;;;1.17;1.17;;;;;;;;;;6130024;23;20176;-82
2022/03/31 02:27:51;;;;;;;1.30;1.30;;;;;;;;;;6130015;23;20195;-83
2022/03/31 02:30:20;;;;;;;1.10;1.10;;;;;;;;;;6155714;23;20179;-82
2022/03/31 02:32:50;;;;;;;1.40;1.40;;;;;;;;;;6129857;23;20179;-82
2022/03/31 02:35:18;;;;;;;0.90;0.90;;;;;;;;;;6155920;23;20171;-83
2022/03/31 02:37:47;;;;;;;1.53;1.43;;;;;;;;;;6154510;23;20190;-82
2022/03/31 02:40:15;;;;;;;1.30;1.30;;;;;;;;;;6155582;23;20172;-82
2022/03/31 02:42:43;;;;;;;1.87;1.77;;;;;;;;;;6129492;23;20186;-82
2022/03/31 02:45:12;;;;;;;2.27;2.07;;;;;;;;;;6129564;23;20187;-82
2022/03/31 02:47:40;;;;;;;1.10;1.10;;;;;;;;;;6155303;23;20180;-82
2022/03/31 02:50:11;;;;;;;1.43;1.43;;;;;;;;;;6129591;23;20189;-83
2022/03/31 02:55:25;;;;;;;1.17;1.17;;;;;;;;;;6129475;23;20180;-82
2022/03/31 02:57:54;;;;;;;1.77;1.67;;;;;;;;;;6155423;23;20167;-83
2022/03/31 03:00:22;;;;;;;0.80;0.80;;;;;;;;;;6153998;23;20186;-82
2022/03/31 03:02:51;;;;;;;1.27;1.20;;;;;;;;;;6129291;23;20179;-82
2022/03/31 03:05:22;;;;;;;0.90;0.90;;;;;;;;;;6155360;23;20174;-83
2022/03/31 03:07:50;;;;;;;1.20;1.20;;;;;;;;;;6129114;23;20250;-83
2022/03/31 03:10:19;;;;;;;0.90;0.90;;;;;;;;;;6129324;23;20175;-83
2022/03/31 03:12:47;;;;;;;0.70;0.70;;;;;;;;;;6129732;23;20258;-83
2022/03/31 03:15:16;;;;;;;2.37;1.53;;;;;;;;;;6129318;23;20179;-83
2022/03/31 03:17:44;;;;;;;1.40;1.40;;;;;;;;;;6129205;23;20179;-83
2022/03/31 03:20:14;;;;;;;0.90;0.90;;;;;;;;;;6155359;23;20164;-83
2022/03/31 03:22:45;;;;;;;0.90;0.90;;;;;;;;;;6129319;23;20202;-83
2022/03/31 03:25:15;;;;;;;1.30;1.30;;;;;;;;;;6129639;23;20175;-83
2022/03/31 03:27:44;;;;;;;1.47;1.37;;;;;;;;;;6129658;23;20175;-84
2022/03/31 03:30:12;;;;;;;0.90;0.90;;;;;;;;;;6129660;23;20205;-84
2022/03/31 03:32:41;;;;;;;1.17;1.17;;;;;;;;;;6129424;23;20186;-84
2022/03/31 03:35:10;;;;;;;0.93;0.93;;;;;;;;;;6153909;23;20186;-84
2022/03/31 03:37:39;;;;;;;0.90;0.90;;;;;;;;;;6155086;23;20167;-84
2022/03/31 03:40:10;;;;;;;0.80;0.80;;;;;;;;;;6129253;23;20214;-84
2022/03/31 03:42:39;;;;;;;1.00;1.00;;;;;;;;;;6129433;23;20182;-84
2022/03/31 03:45:08;;;;;;;1.03;1.03;;;;;;;;;;6129481;23;20180;-84
2022/03/31 03:47:36;;;;;;;1.10;1.10;;;;;;;;;;6129159;23;20176;-84
2022/03/31 03:50:06;;;;;;;0.97;0.97;;;;;;;;;;6129265;23;20195;-84
2022/03/31 03:52:34;;;;;;;3.67;3.47;;;;;;;;;;6129398;23;20186;-84
2022/03/31 03:55:03;;;;;;;1.40;1.40;;;;;;;;;;6130036;23;20183;-84
2022/03/31 03:57:33;;;;;;;1.47;1.10;;;;;;;;;;6131295;23;20175;-84
2022/03/31 04:00:01;;;;;;;1.40;1.40;;;;;;;;;;6157189;23;20222;-84
2022/03/31 04:02:30;;;;;;;4.13;2.07;;;;;;;;;;6131070;23;20175;-84
2022/03/31 04:04:58;;;;;;;1.50;1.40;;;;;;;;;;6130915;23;20286;-84
2022/03/31 04:07:27;;;;;;;1.33;1.33;;;;;;;;;;6137111;23;20213;-85
2022/03/31 04:09:56;;;;;;;7.97;1.27;;;;;;;;;;6131503;23;20199;-84
2022/03/31 04:12:25;;;;;;;1.20;1.10;;;;;;;;;;6157262;23;20173;-84
2022/03/31 04:14:54;;;;;;;1.17;1.17;;;;;;;;;;6130812;23;20262;-85
2022/03/31 04:17:23;;;;;;;1.37;1.37;;;;;;;;;;6131526;23;20186;-85
2022/03/31 04:19:51;;;;;;;1.60;1.50;;;;;;;;;;6130787;23;20175;-84
2022/03/31 04:22:19;;;;;;;1.23;1.23;;;;;;;;;;6131050;23;20187;-85
2022/03/31 04:24:48;;;;;;;1.10;1.10;;;;;;;;;;6131060;23;20194;-85
2022/03/31 04:27:16;;;;;;;1.00;1.00;;;;;;;;;;6130948;23;20268;-85
2022/03/31 04:29:45;;;;;;;1.10;1.10;;;;;;;;;;6131200;23;20256;-85
2022/03/31 04:32:14;;;;;;;1.03;1.03;;;;;;;;;;6130978;23;20234;-85
2022/03/31 04:34:43;;;;;;;1.23;1.20;;;;;;;;;;6131252;23;20180;-85
2022/03/31 04:37:11;;;;;;;1.33;1.20;;;;;;;;;;6130606;23;20183;-85
2022/03/31 04:39:40;;;;;;;1.50;1.50;;;;;;;;;;6131147;23;20183;-85
2022/03/31 04:42:09;;;;;;;3.27;2.73;;;;;;;;;;6156680;23;20255;-86
2022/03/31 04:44:38;;;;;;;1.20;1.20;;;;;;;;;;6131016;23;20178;-86
2022/03/31 04:47:07;;;;;;;1.97;1.77;;;;;;;;;;6131134;23;20179;-86
2022/03/31 04:49:36;;;;;;;2.77;1.50;;;;;;;;;;6156334;23;20191;-86
2022/03/31 04:52:05;;;;;;;1.17;1.17;;;;;;;;;;6131045;23;20182;-86
2022/03/31 04:54:34;;;;;;;2.10;1.97;;;;;;;;;;6131145;23;20183;-87
2022/03/31 04:57:02;;;;;;;1.60;1.50;;;;;;;;;;6130916;23;20186;-87
2022/03/31 04:59:31;;;;;;;1.63;1.53;;;;;;;;;;6156462;23;20172;-87
2022/03/31 05:01:59;;;;;;;1.20;1.20;;;;;;;;;;6130895;23;20211;-86
2022/03/31 05:04:28;;;;;;;0.83;0.83;;;;;;;;;;6130294;23;20200;-87
2022/03/31 05:06:58;;;;;;;1.47;1.37;;;;;;;;;;6160045;23;20203;-86
2022/03/31 05:09:27;;;;;;;1.37;1.20;;;;;;;;;;6159981;23;20197;-87
2022/03/31 05:11:55;;;;;;;1.30;1.30;;;;;;;;;;6184742;23;20179;-87
2022/03/31 05:14:24;;;;;;;1.20;1.20;;;;;;;;;;6160348;23;20224;-87
2022/03/31 05:16:52;;;;;;;2.53;2.30;;;;;;;;;;6184865;23;20175;-87
2022/03/31 05:19:21;;;;;;;2.40;2.20;;;;;;;;;;6184585;23;20167;-90
2022/03/31 05:21:49;;;;;;;1.60;1.50;;;;;;;;;;6160292;23;20179;-89
2022/03/31 05:24:19;;;;;;;8.20;1.30;;;;;;;;;;6160540;23;20207;-89
2022/03/31 05:26:49;;;;;;;1.80;1.70;;;;;;;;;;6185248;23;20257;-89
2022/03/31 05:29:18;;;;;;;1.50;1.40;;;;;;;;;;6160803;23;20238;-89
2022/03/31 05:31:46;;;;;;;3.10;2.50;;;;;;;;;;6186661;23;20246;-90
2022/03/31 05:34:18;;;;;;;1.23;1.23;;;;;;;;;;6161165;23;20179;-90
2022/03/31 05:36:47;;;;;;;3.13;2.83;;;;;;;;;;6160877;23;20205;-90
2022/03/31 05:39:17;;;;;;;2.47;2.37;;;;;;;;;;6162616;23;20171;-93
2022/03/31 05:41:55;;;;;;;2.53;2.33;;;;;;;;;;6179570;23;20163;-90
2022/03/31 05:44:30;;;;;;;1.90;1.80;;;;;;;;;;6184566;23;20222;-91
2022/03/31 05:47:02;;;;;;;6.43;1.53;;;;;;;;;;6180716;23;20230;-91
2022/03/31 05:49:34;;;;;;;2.77;1.77;;;;;;;;;;6178964;23;20198;-91
2022/03/31 05:52:03;;;;;;;2.53;2.33;;;;;;;;;;6177742;23;20179;-93
2022/03/31 05:54:32;;;;;;;4.13;2.53;;;;;;;;;;6174859;23;20211;-91
2022/03/31 05:57:08;;;;;;;1.67;1.57;;;;;;;;;;6172256;23;20172;-93
2022/03/31 05:59:37;;;;;;;3.53;2.67;;;;;;;;;;6172309;23;20181;-93
2022/03/31 06:02:12;;;;;;;1.73;1.63;;;;;;;;;;6175654;23;20224;-94
2022/03/31 06:05:01;;;;;;;3.60;3.03;;;;;;;;;;6195640;23;20218;-93
2022/03/31 06:07:30;;;;;;;3.83;3.30;;;;;;;;;;6156988;23;20218;-92
2022/03/31 06:10:02;;;;;;;2.03;1.87;;;;;;;;;;6140466;23;20195;-91
2022/03/31 06:12:33;;;;;;;3.10;2.83;;;;;;;;;;6141289;23;20184;-93
2022/03/31 06:15:01;;;;;;;3.40;3.10;;;;;;;;;;6142317;23;20608;-89
2022/03/31 06:17:30;;;;;;;2.67;2.47;;;;;;;;;;6146079;23;20258;-90
2022/03/31 06:19:59;;;;;;;5.50;2.80;;;;;;;;;;6145504;23;20235;-91
2022/03/31 06:22:28;;;;;;;2.00;1.87;;;;;;;;;;6135226;23;20184;-91
2022/03/31 06:24:57;;;;;;;2.10;2.00;;;;;;;;;;6137622;23;20175;-92
2022/03/31 06:27:28;;;;;;;3.10;2.20;;;;;;;;;;6147308;23;20179;-92
2022/03/31 06:29:58;;;;;;;2.80;2.50;;;;;;;;;;6149596;23;20203;-92
2022/03/31 06:32:29;;;;;;;1.97;1.83;;;;;;;;;;6144772;23;20263;-92
2022/03/31 06:34:59;;;;;;;2.90;2.60;;;;;;;;;;6140283;23;20194;-92
2022/03/31 06:37:38;;;;;;;3.10;2.80;;;;;;;;;;6144780;23;20222;-89
2022/03/31 06:40:18;;;;;;;2.40;2.20;;;;;;;;;;6141154;23;20239;-88
2022/03/31 06:42:52;;;;;;;1.87;1.77;;;;;;;;;;6147320;23;20175;-92
2022/03/31 06:45:41;;;;;;;1.97;1.87;;;;;;;;;;6144432;23;20234;-88
2022/03/31 06:48:11;;;;;;;2.57;2.23;;;;;;;;;;6141776;23;20175;-91
2022/03/31 06:50:52;;;;;;;3.30;2.70;;;;;;;;;;6138895;23;20211;-91
2022/03/31 07:36:10;;;;;;;3.53;2.73;;;;;;;;;;5671127;24;20227;-87
2022/03/31 07:38:58;;;;;;;2.57;2.33;;;;;;;;;;5864128;24;20189;-86
2022/03/31 07:41:26;;;;;;;2.33;2.13;;;;;;;;;;5882118;24;20185;-86
2022/03/31 07:44:04;;;;;;;2.27;2.17;;;;;;;;;;5952087;24;20216;-88
2022/03/31 07:46:51;;;;;;;4.07;2.47;;;;;;;;;;5989170;23;20191;-90
2022/03/31 07:49:20;;;;;;;3.20;2.60;;;;;;;;;;6009314;23;20178;-87
2022/03/31 07:51:50;;;;;;;6.00;5.60;;;;;;;;;;6033762;23;20210;-88
2022/03/31 07:54:19;;;;;;;1.77;1.67;;;;;;;;;;6033363;23;20182;-88
2022/03/31 07:57:22;;;;;;;3.20;2.27;;;;;;;;;;6020240;23;20247;-91
2022/03/31 07:59:51;;;;;;;2.00;1.80;;;;;;;;;;6108195;23;20496;-88
2022/03/31 08:02:24;;;;;;;1.90;1.80;;;;;;;;;;6124624;23;20172;-83
2022/03/31 08:04:54;;;;;;;2.47;2.27;;;;;;;;;;6103049;23;20201;-89
2022/03/31 08:07:33;;;;;;;1.93;1.83;;;;;;;;;;6127803;23;20226;-89
2022/03/31 08:10:20;;;;;;;2.00;1.90;;;;;;;;;;6123467;23;20186;-89
2022/03/31 08:16:18;;;;;;;1.40;1.40;;;;;;;;;;6128056;23;20190;-89
2022/03/31 08:19:13;;;;;;;2.00;1.90;;;;;;;;;;6181594;23;20179;-88
2022/03/31 09:04:03;;;;;;;1.83;1.73;;;;;;;;;;5898550;24;20250;-88
2022/03/31 09:21:47;;;;;;;2.73;2.53;;;;;;;;;;5864391;24;20181;-89
2022/03/31 09:32:11;;;;;;;1.83;1.73;;;;;;;;;;5952586;24;20220;-91
2022/03/31 09:43:05;;;;;;;2.63;2.43;;;;;;;;;;5982723;23;20232;-92
2022/03/31 09:45:48;;;;;;;1.83;1.63;;;;;;;;;;6014011;23;20195;-90
2022/03/31 10:26:11;;;;;;;2.50;2.30;;;;;;;;;;6213974;22;20227;-85
2022/03/31 10:37:00;;;;;;;;;;;;;;;;;;;;;
2022/03/31 10:39:39;;;;;;;2.13;1.93;;;;;;;;;;5989652;23;20183;-89
2022/03/31 10:53:30;;;;;;;3.00;2.80;;;;;;;;;;6114418;23;20205;-90
2022/03/31 10:56:03;;;;;;;3.73;3.43;;;;;;;;;;6189657;23;20181;-90
2022/03/31 10:58:54;;;;;;;2.97;2.63;;;;;;;;;;6189891;23;20174;-89
2022/03/31 11:13:18;;;;;;;4.03;3.23;;;;;;;;;;6185178;23;20282;-88
2022/03/31 11:19:38;;;;;;;2.30;2.10;;;;;;;;;;6185884;23;20187;-86
2022/03/31 11:30:23;;;;;;;2.63;2.43;;;;;;;;;;5960686;23;20216;-89
2022/03/31 11:32:53;;;;;;;2.20;2.10;;;;;;;;;;6159771;23;20207;-88
2022/03/31 11:35:22;;;;;;;2.33;2.13;;;;;;;;;;6159214;23;20210;-87
2022/03/31 11:37:52;;;;;;;3.20;2.97;;;;;;;;;;6159389;23;20175;-89
2022/03/31 11:40:22;;;;;;;1.97;1.87;;;;;;;;;;6158865;23;20179;-89
2022/03/31 11:42:54;;;;;;;2.67;2.47;;;;;;;;;;6159019;23;20183;-87
2022/03/31 11:45:31;;;;;;;2.10;2.00;;;;;;;;;;6159006;23;20192;-89
2022/03/31 11:51:49;;;;;;;2.67;2.47;;;;;;;;;;6018765;23;20263;-83
2022/03/31 11:54:40;;;;;;;2.50;2.30;;;;;;;;;;6066748;23;20185;-89
2022/03/31 12:05:28;;;;;;;3.73;3.43;;;;;;;;;;6007984;23;20188;-91
2022/03/31 12:08:27;;;;;;;3.73;3.43;;;;;;;;;;5990358;24;20219;-91
2022/03/31 12:14:01;;;;;;;2.97;2.77;;;;;;;;;;5994619;23;20215;-92
2022/03/31 12:21:08;;;;;;;3.47;3.17;;;;;;;;;;6009244;23;20182;-90
2022/03/31 12:24:10;;;;;;;;;;;;;;;;;;;;;
2022/03/31 12:27:04;;;;;;;2.60;2.40;;;;;;;;;;6002203;23;20183;-89
2022/03/31 12:29:33;;;;;;;2.83;2.63;;;;;;;;;;6001254;23;20444;-89
2022/03/31 12:36:11;;;;;;;2.97;2.73;;;;;;;;;;6075932;23;20188;-89
2022/03/31 12:38:47;;;;;;;2.97;2.77;;;;;;;;;;6094911;23;20185;-88
2022/03/31 12:41:34;;;;;;;2.70;2.50;;;;;;;;;;6149468;23;20168;-88
2022/03/31 12:48:12;;;;;;;3.03;2.83;;;;;;;;;;5881517;23;20186;-89
2022/03/31 12:50:49;;;;;;;2.83;2.63;;;;;;;;;;6005801;23;20178;-89
2022/03/31 12:53:38;;;;;;;3.50;3.20;;;;;;;;;;6012729;23;20262;-89
2022/03/31 12:56:10;;;;;;;5.17;2.87;;;;;;;;;;6036263;23;20232;-87
2022/03/31 12:58:40;;;;;;;3.20;2.90;;;;;;;;;;6012207;23;20182;-89
2022/03/31 13:01:20;;;;;;;3.70;3.40;;;;;;;;;;6013252;23;20182;-90
2022/03/31 13:03:59;;;;;;;3.70;3.30;;;;;;;;;;6011843;23;20249;-88
2022/03/31 13:06:35;;;;;;;3.23;2.93;;;;;;;;;;6038389;23;20213;-88
2022/03/31 13:09:04;;;;;;;3.60;3.30;;;;;;;;;;6013894;23;20307;-88
2022/03/31 13:11:33;;;;;;;4.30;3.90;;;;;;;;;;6011902;23;20213;-88
2022/03/31 13:14:03;;;;;;;3.37;3.07;;;;;;;;;;6018407;23;20244;-88
2022/03/31 13:16:32;;;;;;;2.97;2.77;;;;;;;;;;6067227;23;20169;-88
2022/03/31 13:19:02;;;;;;;4.63;3.23;;;;;;;;;;6156619;23;20210;-88
2022/03/31 13:21:32;;;;;;;3.10;2.90;;;;;;;;;;6185909;23;20182;-88
2022/03/31 13:24:01;;;;;;;3.13;2.93;;;;;;;;;;6160989;23;20171;-87
2022/03/31 13:26:32;;;;;;;4.27;3.73;;;;;;;;;;6161527;23;20176;-88
2022/03/31 13:29:02;;;;;;;3.57;3.30;;;;;;;;;;6186137;23;20179;-87
2022/03/31 13:31:30;;;;;;;4.60;4.20;;;;;;;;;;6160774;23;20185;-87
2022/03/31 13:33:59;;;;;;;4.80;3.60;;;;;;;;;;6159763;23;20202;-87
2022/03/31 13:36:29;;;;;;;3.70;3.40;;;;;;;;;;6161651;23;20258;-87
2022/03/31 13:38:57;;;;;;;4.33;3.93;;;;;;;;;;6161072;23;20175;-85
2022/03/31 13:41:27;;;;;;;5.73;4.93;;;;;;;;;;6185983;23;20235;-86
2022/03/31 13:43:56;;;;;;;5.47;5.07;;;;;;;;;;6187258;23;20178;-86
2022/03/31 13:46:25;;;;;;;4.13;3.83;;;;;;;;;;6161299;23;20186;-86
2022/03/31 13:48:53;;;;;;;4.50;4.00;;;;;;;;;;6161237;23;20179;-86
2022/03/31 13:51:22;;;;;;;4.57;4.17;;;;;;;;;;6161842;23;20175;-86
2022/03/31 13:53:53;;;;;;;5.47;4.97;;;;;;;;;;6160696;23;20192;-86
2022/03/31 13:56:22;;;;;;;3.63;3.33;;;;;;;;;;6185848;23;20170;-86
2022/03/31 14:01:38;;;;;;;4.50;4.10;;;;;;;;;;6161370;23;20186;-85
2022/03/31 14:04:06;;;;;;;5.37;4.43;;;;;;;;;;6162321;23;20222;-84
2022/03/31 14:06:40;;;;;;;5.07;4.57;;;;;;;;;;6163447;23;20182;-85
2022/03/31 14:09:13;;;;;;;5.80;5.27;;;;;;;;;;6187746;23;20163;-85
2022/03/31 14:11:41;;;;;;;5.77;5.27;;;;;;;;;;6187454;23;20214;-85
2022/03/31 14:14:12;;;;;;;4.07;3.67;;;;;;;;;;6161021;23;20217;-85
2022/03/31 14:16:41;;;;;;;5.90;5.33;;;;;;;;;;6186548;23;20175;-85
2022/03/31 14:19:11;;;;;;;3.63;3.33;;;;;;;;;;6184868;23;20203;-85
2022/03/31 14:21:41;;;;;;;8.73;4.90;;;;;;;;;;6188803;23;20182;-85
2022/03/31 14:24:11;;;;;;;3.20;2.83;;;;;;;;;;6163653;23;20167;-86
2022/03/31 14:26:41;;;;;;;4.83;4.43;;;;;;;;;;6187792;23;20175;-85
2022/03/31 14:29:11;;;;;;;5.30;4.80;;;;;;;;;;6186444;23;20246;-85
2022/03/31 14:31:39;;;;;;;3.40;3.10;;;;;;;;;;6185522;23;20172;-85
2022/03/31 14:34:09;;;;;;;3.87;3.57;;;;;;;;;;6159553;23;20245;-85
2022/03/31 14:36:37;;;;;;;3.60;3.30;;;;;;;;;;6159384;23;20181;-86
2022/03/31 14:39:08;;;;;;;4.90;4.40;;;;;;;;;;6159205;23;20179;-84
2022/03/31 14:41:39;;;;;;;3.33;3.03;;;;;;;;;;6185257;23;20171;-85
2022/03/31 14:44:07;;;;;;;4.83;3.83;;;;;;;;;;6185994;23;20167;-86
2022/03/31 14:46:37;;;;;;;4.73;3.83;;;;;;;;;;6160134;23;20175;-86
2022/03/31 14:49:07;;;;;;;4.63;4.23;;;;;;;;;;6185515;23;20170;-86
2022/03/31 14:51:36;;;;;;;4.93;4.20;;;;;;;;;;6184615;23;20202;-86
2022/03/31 14:54:04;;;;;;;3.60;3.30;;;;;;;;;;6159115;23;20199;-85
2022/03/31 14:56:33;;;;;;;4.17;3.77;;;;;;;;;;6184560;23;20181;-85
2022/03/31 14:59:03;;;;;;;5.47;4.97;;;;;;;;;;6160005;23;20197;-85
2022/03/31 15:01:31;;;;;;;5.90;5.33;;;;;;;;;;6159661;23;20186;-85
2022/03/31 15:04:02;;;;;;;4.17;3.80;;;;;;;;;;6183968;23;20191;-85
2022/03/31 15:06:31;;;;;;;5.97;5.43;;;;;;;;;;6184587;23;20258;-85
2022/03/31 15:09:00;;;;;;;4.23;3.83;;;;;;;;;;6185850;23;20171;-85
2022/03/31 15:14:31;;;;;;;4.57;4.17;;;;;;;;;;6175876;23;20208;-85
2022/03/31 15:17:00;;;;;;;5.50;5.00;;;;;;;;;;6155429;23;20172;-84
2022/03/31 15:19:30;;;;;;;5.07;4.47;;;;;;;;;;6129693;23;20178;-84
2022/03/31 15:21:58;;;;;;;3.70;3.37;;;;;;;;;;6129732;23;20180;-84
2022/03/31 15:24:28;;;;;;;5.63;3.77;;;;;;;;;;6154620;23;20176;-84
2022/03/31 15:26:57;;;;;;;4.50;4.10;;;;;;;;;;6153846;23;20179;-83
2022/03/31 15:29:27;;;;;;;2.30;2.17;;;;;;;;;;6154677;23;20175;-84
2022/03/31 15:31:55;;;;;;;5.07;4.60;;;;;;;;;;6153986;23;20186;-84
2022/03/31 15:34:24;;;;;;;3.60;2.90;;;;;;;;;;6129631;23;20212;-84
2022/03/31 15:36:53;;;;;;;3.77;3.47;;;;;;;;;;6155291;23;20176;-84
2022/03/31 15:39:24;;;;;;;3.67;3.07;;;;;;;;;;6155348;23;20246;-84
2022/03/31 15:42:10;;;;;;;2.97;2.77;;;;;;;;;;6155402;23;20175;-84
2022/03/31 15:44:40;;;;;;;3.40;3.17;;;;;;;;;;6129572;23;20177;-84
2022/03/31 15:47:09;;;;;;;4.37;3.97;;;;;;;;;;6154464;23;20186;-84
2022/03/31 15:49:37;;;;;;;3.40;3.20;;;;;;;;;;6130728;23;20186;-84
2022/03/31 15:52:05;;;;;;;5.47;4.87;;;;;;;;;;6131561;23;20182;-83
2022/03/31 15:54:34;;;;;;;4.23;3.93;;;;;;;;;;6157495;23;20184;-84
2022/03/31 15:57:03;;;;;;;5.93;5.13;;;;;;;;;;6157447;23;20179;-84
2022/03/31 15:59:31;;;;;;;4.10;3.80;;;;;;;;;;6156426;23;20176;-84
2022/03/31 16:02:02;;;;;;;4.37;3.97;;;;;;;;;;6157864;23;20174;-84
2022/03/31 16:04:30;;;;;;;5.00;4.47;;;;;;;;;;6131797;23;20215;-84
2022/03/31 16:06:59;;;;;;;4.63;3.90;;;;;;;;;;6131678;23;20176;-84
2022/03/31 16:09:27;;;;;;;4.93;4.50;;;;;;;;;;6156257;23;20184;-84
2022/03/31 16:11:57;;;;;;;5.57;5.07;;;;;;;;;;6130937;23;20179;-85
2022/03/31 16:14:26;;;;;;;5.53;5.03;;;;;;;;;;6156854;23;20216;-84
2022/03/31 16:16:54;;;;;;;4.80;4.33;;;;;;;;;;6155871;23;20179;-85
2022/03/31 16:19:28;;;;;;;5.13;4.63;;;;;;;;;;6156100;23;20175;-85
2022/03/31 16:21:56;;;;;;;1.10;1.10;;;;;;;;;;6157363;23;20391;-85
2022/03/31 16:24:25;;;;;;;0.90;0.90;;;;;;;;;;6157542;23;20168;-85
2022/03/31 16:26:53;;;;;;;0.90;0.90;;;;;;;;;;6156364;23;20243;-85
2022/03/31 16:29:21;;;;;;;0.90;0.90;;;;;;;;;;6155965;23;20182;-86
2022/03/31 16:31:51;;;;;;;0.80;0.80;;;;;;;;;;6155761;23;20238;-85
2022/03/31 16:34:20;;;;;;;0.90;0.90;;;;;;;;;;6157194;23;20213;-86
2022/03/31 16:36:50;;;;;;;0.90;0.90;;;;;;;;;;6131187;23;20203;-85
2022/03/31 16:39:19;;;;;;;0.90;0.90;;;;;;;;;;6156921;23;20257;-86
2022/03/31 16:41:47;;;;;;;0.90;0.90;;;;;;;;;;6131271;23;20198;-85
2022/03/31 16:44:16;;;;;;;0.90;0.90;;;;;;;;;;6130991;23;20260;-86
2022/03/31 16:46:45;;;;;;;0.90;0.90;;;;;;;;;;6155586;23;20171;-86
2022/03/31 16:49:14;;;;;;;0.83;0.83;;;;;;;;;;6131479;23;20180;-85
2022/03/31 16:51:43;;;;;;;0.80;0.80;;;;;;;;;;6130645;23;20178;-85
2022/03/31 16:54:15;;;;;;;0.97;0.97;;;;;;;;;;6155118;23;20195;-85
2022/03/31 16:56:43;;;;;;;0.83;0.83;;;;;;;;;;6155632;23;20339;-85
2022/03/31 16:59:12;;;;;;;0.90;0.90;;;;;;;;;;6131635;23;20186;-85
2022/03/31 17:01:40;;;;;;;0.90;0.90;;;;;;;;;;6157109;23;20172;-86
2022/03/31 17:04:10;;;;;;;1.00;1.00;;;;;;;;;;6156774;23;20249;-85
2022/03/31 17:06:38;;;;;;;1.00;1.00;;;;;;;;;;6157171;23;20187;-85
2022/03/31 17:09:07;;;;;;;0.90;0.90;;;;;;;;;;6156885;23;20175;-85
2022/03/31 17:11:36;;;;;;;0.90;0.90;;;;;;;;;;6157137;23;20176;-85
2022/03/31 17:14:05;;;;;;;0.97;0.97;;;;;;;;;;6130932;23;20218;-85
2022/03/31 17:16:34;;;;;;;0.90;0.90;;;;;;;;;;6156927;23;20171;-85
2022/03/31 17:19:02;;;;;;;0.90;0.90;;;;;;;;;;6156935;23;20177;-86
2022/03/31 17:21:31;;;;;;;0.90;0.90;;;;;;;;;;6130176;23;20182;-85
2022/03/31 17:23:59;;;;;;;0.90;0.90;;;;;;;;;;6131314;23;20195;-85
2022/03/31 17:26:28;;;;;;;0.90;0.90;;;;;;;;;;6155684;23;20192;-86
2022/03/31 17:28:58;;;;;;;1.47;1.47;;;;;;;;;;6131116;23;20237;-85
2022/03/31 17:31:27;;;;;;;0.90;0.90;;;;;;;;;;6130833;23;20205;-85
2022/03/31 17:33:55;;;;;;;0.90;0.90;;;;;;;;;;6130788;23;20172;-85
2022/03/31 17:36:24;;;;;;;0.90;0.90;;;;;;;;;;6130715;23;20197;-86
2022/03/31 17:38:52;;;;;;;0.80;0.80;;;;;;;;;;6154954;23;20189;-85
2022/03/31 17:41:20;;;;;;;0.90;0.90;;;;;;;;;;6131085;23;20178;-86
2022/03/31 17:43:49;;;;;;;0.90;0.90;;;;;;;;;;6130227;23;20193;-86
2022/03/31 17:46:19;;;;;;;0.90;0.90;;;;;;;;;;6130731;23;20177;-86
2022/03/31 17:48:47;;;;;;;0.90;0.90;;;;;;;;;;6154575;23;20172;-87
2022/03/31 17:51:16;;;;;;;0.90;0.90;;;;;;;;;;6156137;23;20183;-87
2022/03/31 17:53:45;;;;;;;0.80;0.80;;;;;;;;;;6130158;23;20182;-85
2022/03/31 17:56:13;;;;;;;0.90;0.90;;;;;;;;;;6129880;23;20200;-86
2022/03/31 17:58:41;;;;;;;1.50;1.50;;;;;;;;;;6130383;23;20198;-86
2022/03/31 18:01:11;;;;;;;0.90;0.90;;;;;;;;;;6130041;23;20174;-87
2022/03/31 18:03:41;;;;;;;1.00;1.00;;;;;;;;;;6155712;23;20277;-86
2022/03/31 18:06:09;;;;;;;1.00;1.00;;;;;;;;;;6129908;23;20242;-86
2022/03/31 18:08:37;;;;;;;0.93;0.93;;;;;;;;;;6154643;23;20175;-85
2022/03/31 18:11:06;;;;;;;0.90;0.90;;;;;;;;;;6154785;23;20178;-86
2022/03/31 18:13:35;;;;;;;1.97;1.97;;;;;;;;;;6130239;23;20197;-86
2022/03/31 18:16:04;;;;;;;0.90;0.90;;;;;;;;;;6154469;23;20213;-85
2022/03/31 18:18:34;;;;;;;0.90;0.90;;;;;;;;;;6130052;23;20258;-85
2022/03/31 18:21:04;;;;;;;0.90;0.90;;;;;;;;;;6130063;23;20227;-86
2022/03/31 18:23:32;;;;;;;0.90;0.90;;;;;;;;;;6130406;23;20186;-85
2022/03/31 18:26:02;;;;;;;0.90;0.90;;;;;;;;;;6155641;23;20170;-85
2022/03/31 18:28:30;;;;;;;1.00;1.00;;;;;;;;;;6155382;23;20174;-86
2022/03/31 18:33:53;;;;;;;0.90;0.90;;;;;;;;;;6129308;23;20181;-85
2022/03/31 18:36:23;;;;;;;0.97;0.97;;;;;;;;;;6129759;23;20193;-85
2022/03/31 18:38:52;;;;;;;0.90;0.90;;;;;;;;;;6130075;23;20189;-85
2022/03/31 18:41:20;;;;;;;0.90;0.90;;;;;;;;;;6155601;23;20169;-85
2022/03/31 18:43:49;;;;;;;0.90;0.90;;;;;;;;;;6155796;23;20178;-85
2022/03/31 18:46:19;;;;;;;0.90;0.90;;;;;;;;;;6129689;23;20178;-85
2022/03/31 18:48:48;;;;;;;0.90;0.90;;;;;;;;;;6155408;23;20170;-85
2022/03/31 18:51:17;;;;;;;0.90;0.90;;;;;;;;;;6155361;23;20232;-84
2022/03/31 18:53:47;;;;;;;0.90;0.90;;;;;;;;;;6155473;23;20182;-85
2022/03/31 18:56:18;;;;;;;1.00;1.00;;;;;;;;;;6153857;23;20206;-85
2022/03/31 18:58:46;;;;;;;0.90;0.90;;;;;;;;;;6129542;23;20174;-85
2022/03/31 19:01:15;;;;;;;0.80;0.80;;;;;;;;;;6154172;23;20211;-85
2022/03/31 19:03:45;;;;;;;1.00;1.00;;;;;;;;;;6154368;23;20198;-85
2022/03/31 19:08:58;;;;;;;1.00;1.00;;;;;;;;;;6136508;23;20184;-85